Track Кладиенко Олег

Time Latitude Longitude Accuracy (66% radius in meters) Altitude (meters) Speed (km/hour) Bearing (degrees) Battery (%) GPS flag
09:26:11 60.404178 30.332467 0 0 0 0 1 delete
09:26:10 60.404190 30.332420 0 0 0 0 1 delete
09:26:09 60.404203 30.332377 0 0 0 0 1 delete
09:26:08 60.404215 30.332333 0 0 0 0 1 delete
09:26:07 60.404227 30.332297 0 0 0 0 1 delete
09:26:06 60.404240 30.332258 0 0 0 0 1 delete
09:26:05 60.404247 30.332227 0 0 0 0 1 delete
09:26:04 60.404252 30.332192 0 0 0 0 1 delete
09:26:03 60.404260 30.332158 0 0 0 0 1 delete
09:26:02 60.404275 30.332127 0 0 0 0 1 delete
09:26:01 60.404295 30.332092 0 0 0 0 1 delete
09:26:00 60.404313 30.332038 0 0 0 0 1 delete
09:25:59 60.404330 30.331990 0 0 0 0 1 delete
09:25:58 60.404352 30.331942 0 0 0 0 1 delete
09:25:57 60.404378 30.331895 0 0 0 0 1 delete
09:25:56 60.404398 30.331847 0 0 0 0 1 delete
09:25:55 60.404418 30.331813 0 0 0 0 1 delete
09:25:54 60.404438 30.331788 0 0 0 0 1 delete
09:25:53 60.404460 30.331772 0 0 0 0 1 delete
09:25:52 60.404477 30.331767 0 0 0 0 1 delete
09:25:51 60.404497 30.331768 0 0 0 0 1 delete
09:25:50 60.404512 30.331773 0 0 0 0 1 delete
09:25:49 60.404522 30.331777 0 0 0 0 1 delete
09:25:48 60.404530 30.331777 0 0 0 0 1 delete
09:25:47 60.404533 30.331772 0 0 0 0 1 delete
09:25:46 60.404535 30.331773 0 0 0 0 1 delete
09:25:45 60.404535 30.331775 0 0 0 0 1 delete
09:25:44 60.404537 30.331777 0 0 0 0 1 delete
09:25:43 60.404540 30.331785 0 0 0 0 1 delete
09:25:42 60.404547 30.331800 0 0 0 0 1 delete
09:25:41 60.404550 30.331810 0 0 0 0 1 delete
09:25:40 60.404552 30.331813 0 0 0 0 1 delete
09:25:39 60.404552 30.331817 0 0 0 0 1 delete
09:25:38 60.404552 30.331823 0 0 0 0 1 delete
09:25:37 60.404553 30.331823 0 0 0 0 1 delete
09:25:36 60.404553 30.331825 0 0 0 0 1 delete
09:25:35 60.404555 30.331825 0 0 0 0 1 delete
09:25:34 60.404555 30.331827 0 0 0 0 1 delete
09:25:33 60.404557 30.331827 0 0 0 0 1 delete
09:25:32 60.404557 30.331828 0 0 0 0 1 delete
09:25:31 60.404558 30.331828 0 0 0 0 1 delete
09:25:30 60.404560 30.331830 0 0 0 0 1 delete
09:25:29 60.404560 30.331832 0 0 0 0 1 delete
09:25:28 60.404562 30.331833 0 0 0 0 1 delete
09:25:27 60.404563 30.331835 0 0 0 0 1 delete
09:25:26 60.404565 30.331835 0 0 0 0 1 delete
09:25:25 60.404567 30.331837 0 0 0 0 1 delete
09:25:24 60.404568 30.331840 0 0 0 0 1 delete
09:25:23 60.404570 30.331842 0 0 0 0 1 delete
09:25:22 60.404573 30.331843 0 0 0 0 1 delete